CheckWX is a tool to help pilots better visualize weather data.  It is not intended as a substitute for an official pre-flight weather briefing.

01:36:07 UTC

KAVL METAR
Asheville Regional Airport
Asheville, North Carolina, USA
Current

42 mins ago

KAVL 240054Z 18006KT 4SM BR OVC003 06/04 A3008 RMK AO2 SLP185 T00560044
Observed
Feb-24 @ 00:54 UTC
Wind
  • 180° at 6 KTS
Visibility
4 SM
Flight Rules
LIFR
Conditions
Mist
Cloud Levels
  • Overcast at 300' AGL
Temperature
C / 43°F
Dewpoint
C / 39°F
Humidity
87%
Altimeter
30.08" Hg
Pressure
1018.5 hPa
Previous

1 hour ago

KAVL 240015Z 17007KT 8SM BKN004 OVC014 06/04 A3009 RMK AO2 T00610044
Observed
Feb-24 @ 00:15 UTC
Wind
  • 170° at 7 KTS
Visibility
8 SM
Flight Rules
LIFR
Cloud Levels
  • Broken at 400' AGL
  • Overcast at 1,400' AGL
Temperature
C / 43°F
Dewpoint
C / 39°F
Humidity
87%
Altimeter
30.09" Hg
Pressure
1018.92 hPa
Previous

2 hours ago

KAVL 240000Z 16006KT 10SM FEW004 OVC014 06/05 A3010 RMK AO2 T00610050
Observed
Feb-24 @ 00:00 UTC
Wind
  • 160° at 6 KTS
Visibility
10 SM
Flight Rules
MVFR
Cloud Levels
  • Few at 400' AGL
  • Overcast at 1,400' AGL
Temperature
C / 43°F
Dewpoint
C / 41°F
Humidity
93%
Altimeter
30.1" Hg
Pressure
1019.32 hPa